Terminal Aerodrome Forecast
Issued by NWS Wichita, KS

Home | Current Version | Previous Version | Graphics & Text | Print | Product List | Glossary On
Versions: 1 2 3 4 5 6 7 8 9 10 11 12 13 14 15 16
766
FTUS43 KICT 250401 AAC
TAFICT
TAF AMD
KICT 250401Z 2504/2524 VRB05KT P6SM SCT007 BKN100
      TEMPO 2504/2506 BKN007
     FM250600 24007KT P6SM VCSH SCT015 BKN040
      TEMPO 2506/2510 TSRA SCT008 BKN015CB
     FM251200 35020G30KT P6SM BKN015
     FM251400 35018G28KT P6SM SKC=

USA.gov is the U.S. government's official web portal to all federal, state and local government web resources and services.